createdAt,value
2022-12-28T00:01:24.649Z,6.32
2022-12-28T00:03:52.756Z,5.68
2022-12-28T00:06:21.896Z,6.22
2022-12-28T00:08:48.350Z,5.85
2022-12-28T00:11:27.601Z,5.90
2022-12-28T00:13:58.025Z,6.30
2022-12-28T00:16:28.481Z,6.40
2022-12-28T00:18:57.520Z,6.17
2022-12-28T00:21:24.583Z,6.07
2022-12-28T00:23:52.808Z,5.55
2022-12-28T00:26:19.995Z,6.00
2022-12-28T00:28:46.870Z,5.43
2022-12-28T00:31:14.445Z,5.30
2022-12-28T00:33:41.152Z,5.15
2022-12-28T00:36:07.890Z,5.20
2022-12-28T00:38:37.435Z,4.38
2022-12-28T00:41:06.501Z,3.38
2022-12-28T00:43:33.092Z,3.90
2022-12-28T00:45:59.738Z,4.35
2022-12-28T00:48:26.304Z,3.33
2022-12-28T00:50:52.866Z,2.83
2022-12-28T00:53:19.518Z,2.97
2022-12-28T00:55:46.126Z,3.00
2022-12-28T00:58:12.568Z,2.42
2022-12-28T01:00:39.139Z,3.30
2022-12-28T01:03:05.703Z,3.45
2022-12-28T01:05:32.290Z,3.03
2022-12-28T01:07:58.782Z,3.17
2022-12-28T01:10:25.204Z,2.80
2022-12-28T01:12:51.660Z,3.00
2022-12-28T01:15:19.371Z,3.08
2022-12-28T01:17:46.751Z,3.17
2022-12-28T01:20:13.180Z,3.08
2022-12-28T01:22:39.796Z,3.58
2022-12-28T01:25:07.042Z,3.13
2022-12-28T01:27:37.019Z,2.45
2022-12-28T01:30:05.057Z,8.40
2022-12-28T01:32:31.567Z,3.20
2022-12-28T01:34:58.014Z,3.05
2022-12-28T01:37:24.422Z,2.58
2022-12-28T01:39:50.844Z,2.63
2022-12-28T01:42:19.454Z,2.30
2022-12-28T01:44:52.305Z,2.55
2022-12-28T01:47:26.673Z,3.25
2022-12-28T01:50:02.383Z,2.28
2022-12-28T01:52:44.878Z,2.40
2022-12-28T01:55:24.710Z,2.38
2022-12-28T01:58:01.288Z,2.63
2022-12-28T02:00:28.059Z,2.30
2022-12-28T02:03:02.210Z,2.67
2022-12-28T02:05:34.453Z,2.65
2022-12-28T02:08:13.479Z,3.45
2022-12-28T02:10:45.837Z,2.60
2022-12-28T02:13:15.565Z,2.60
2022-12-28T02:15:42.572Z,2.05
2022-12-28T02:18:09.908Z,2.40
2022-12-28T02:21:22.425Z,2.10
2022-12-28T02:24:30.176Z,2.28
2022-12-28T02:27:24.844Z,2.08
2022-12-28T02:30:08.192Z,2.45
2022-12-28T02:32:47.173Z,2.53
2022-12-28T02:35:30.193Z,2.58
2022-12-28T02:38:11.393Z,2.75
2022-12-28T02:40:45.401Z,2.63
2022-12-28T02:43:12.811Z,2.55
2022-12-28T02:46:05.929Z,2.67
2022-12-28T02:49:02.768Z,3.15
2022-12-28T02:51:41.157Z,2.88
2022-12-28T02:55:03.191Z,3.03
2022-12-28T02:58:06.759Z,3.63
2022-12-28T03:00:50.959Z,2.65
2022-12-28T03:03:23.338Z,3.03
2022-12-28T03:06:26.943Z,3.20
2022-12-28T03:09:21.202Z,3.13
2022-12-28T03:11:53.198Z,3.42
2022-12-28T03:14:26.496Z,3.80
2022-12-28T03:17:17.623Z,3.28
2022-12-28T03:20:15.395Z,2.97
2022-12-28T03:23:02.719Z,3.28
2022-12-28T03:25:53.068Z,4.05
2022-12-28T03:28:48.192Z,3.83
2022-12-28T03:31:19.859Z,3.17
2022-12-28T03:33:54.134Z,3.67
2022-12-28T03:36:20.585Z,3.20
2022-12-28T03:39:00.417Z,3.42
2022-12-28T03:41:41.495Z,4.15
2022-12-28T03:44:32.364Z,4.05
2022-12-28T03:47:18.889Z,4.40
2022-12-28T03:49:45.756Z,3.85
2022-12-28T03:52:12.949Z,3.63
2022-12-28T03:54:40.757Z,3.95
2022-12-28T03:57:08.417Z,4.38
2022-12-28T04:02:07.235Z,3.80
2022-12-28T04:04:33.985Z,4.25
2022-12-28T04:07:00.715Z,4.53
2022-12-28T04:09:27.166Z,4.10
2022-12-28T04:11:54.120Z,4.47
2022-12-28T04:14:32.662Z,4.30
2022-12-28T04:16:59.127Z,4.25
2022-12-28T04:19:25.639Z,4.22
2022-12-28T04:21:52.125Z,4.60
2022-12-28T04:24:18.552Z,4.40
2022-12-28T04:26:45.008Z,4.65
2022-12-28T04:29:12.771Z,5.50
2022-12-28T04:31:46.862Z,5.68
2022-12-28T04:34:17.617Z,5.95
2022-12-28T04:36:54.173Z,6.22
2022-12-28T04:39:22.220Z,7.40
2022-12-28T04:41:48.707Z,6.13
2022-12-28T04:44:15.156Z,6.38
2022-12-28T04:46:41.618Z,7.15
2022-12-28T04:49:08.045Z,7.00
2022-12-28T04:51:35.313Z,7.60
2022-12-28T04:54:01.782Z,7.07
2022-12-28T04:56:28.260Z,7.00
2022-12-28T04:58:59.483Z,7.70
2022-12-28T05:01:26.519Z,7.22
2022-12-28T05:03:57.370Z,7.20
2022-12-28T05:06:27.412Z,8.68
2022-12-28T05:08:55.380Z,7.10
2022-12-28T05:11:24.760Z,8.10
2022-12-28T05:13:51.247Z,7.90
2022-12-28T05:16:20.416Z,8.88
2022-12-28T05:18:46.996Z,7.97
2022-12-28T05:21:16.647Z,8.90
2022-12-28T05:23:43.472Z,9.48
2022-12-28T05:26:13.217Z,7.90
2022-12-28T05:28:40.375Z,8.90
2022-12-28T05:31:10.794Z,8.20
2022-12-28T05:33:37.868Z,8.27
2022-12-28T05:36:05.092Z,8.52
2022-12-28T05:38:32.411Z,9.07
2022-12-28T05:41:26.353Z,9.77
2022-12-28T05:43:53.211Z,10.25
2022-12-28T05:46:24.553Z,9.60
2022-12-28T05:51:21.444Z,9.05
2022-12-28T05:53:48.215Z,9.25
2022-12-28T05:56:18.105Z,8.55
2022-12-28T05:58:46.082Z,9.80
2022-12-28T06:01:17.686Z,9.45
2022-12-28T06:03:45.062Z,9.90
2022-12-28T06:06:17.471Z,9.75
2022-12-28T06:08:45.558Z,10.25
2022-12-28T06:11:15.274Z,9.50
2022-12-28T06:13:42.366Z,10.18
2022-12-28T06:16:20.482Z,9.38
2022-12-28T06:18:47.877Z,9.13
2022-12-28T06:21:16.842Z,10.23
2022-12-28T06:23:44.148Z,9.45
2022-12-28T06:26:13.192Z,8.82
2022-12-28T06:28:40.400Z,9.27
2022-12-28T06:31:08.451Z,8.55
2022-12-28T06:33:35.054Z,9.38
2022-12-28T06:36:02.014Z,9.40
2022-12-28T06:38:31.194Z,8.85
2022-12-28T06:41:13.263Z,9.48
2022-12-28T06:43:43.849Z,9.50
2022-12-28T06:46:12.287Z,8.77
2022-12-28T06:48:39.444Z,8.77
2022-12-28T06:51:14.503Z,10.10
2022-12-28T06:53:41.416Z,8.50
2022-12-28T06:56:11.827Z,8.05
2022-12-28T06:58:38.447Z,8.75
2022-12-28T07:01:19.481Z,8.43
2022-12-28T07:03:47.274Z,9.55
2022-12-28T07:06:16.341Z,8.80
2022-12-28T07:08:43.295Z,9.43
2022-12-28T07:11:17.754Z,8.98
2022-12-28T07:13:44.183Z,8.75
2022-12-28T07:16:15.612Z,8.25
2022-12-28T07:21:15.704Z,8.32
2022-12-28T07:23:42.558Z,8.23
2022-12-28T07:26:14.783Z,7.50
2022-12-28T07:28:44.655Z,7.00
2022-12-28T07:31:13.799Z,6.95
2022-12-28T07:33:40.792Z,7.85
2022-12-28T07:36:08.498Z,6.82
2022-12-28T07:38:35.613Z,7.65
2022-12-28T07:41:07.677Z,7.22
2022-12-28T07:43:35.005Z,7.43
2022-12-28T07:46:10.895Z,7.95
2022-12-28T07:48:39.100Z,7.55
2022-12-28T07:51:27.127Z,6.82
2022-12-28T07:53:54.784Z,8.07
2022-12-28T07:56:22.997Z,8.15
2022-12-28T07:58:51.510Z,8.23
2022-12-28T08:01:19.990Z,8.43
2022-12-28T08:03:46.871Z,8.48
2022-12-28T08:06:19.967Z,7.72
2022-12-28T08:08:49.375Z,8.18
2022-12-28T08:11:21.826Z,8.93
2022-12-28T08:13:50.539Z,10.05
2022-12-28T08:16:19.489Z,9.07
2022-12-28T08:18:47.751Z,9.35
2022-12-28T08:21:18.929Z,8.82
2022-12-28T08:23:46.166Z,9.73
2022-12-28T08:26:14.206Z,9.95
2022-12-28T08:28:42.280Z,9.38
2022-12-28T08:31:12.228Z,9.35
2022-12-28T08:33:38.990Z,9.70
2022-12-28T08:36:06.597Z,9.23
2022-12-28T08:38:33.867Z,10.18
2022-12-28T08:41:02.641Z,9.35
2022-12-28T08:43:31.047Z,9.40
2022-12-28T08:46:06.861Z,9.15
2022-12-28T08:48:34.451Z,10.32
2022-12-28T08:51:03.528Z,8.45
2022-12-28T08:53:30.212Z,8.95
2022-12-28T08:56:06.385Z,8.75
2022-12-28T08:58:33.640Z,9.63
2022-12-28T09:01:18.061Z,9.90
2022-12-28T09:03:46.504Z,9.52
2022-12-28T09:06:15.654Z,7.97
2022-12-28T09:08:42.643Z,8.25
2022-12-28T09:11:13.494Z,8.40
2022-12-28T09:13:40.879Z,8.10
2022-12-28T09:16:10.539Z,8.55
2022-12-28T09:18:38.811Z,7.63
2022-12-28T09:21:11.894Z,7.63
2022-12-28T09:23:38.656Z,7.63
2022-12-28T09:26:16.976Z,7.93
2022-12-28T09:28:48.144Z,7.50
2022-12-28T09:31:15.470Z,6.88
2022-12-28T09:36:47.007Z,6.80
2022-12-28T09:39:17.426Z,6.68
2022-12-28T09:41:49.346Z,8.15
2022-12-28T09:44:37.827Z,7.70
2022-12-28T09:47:19.430Z,10.02
2022-12-28T09:49:49.649Z,7.07
2022-12-28T09:52:29.901Z,7.32
2022-12-28T09:55:03.921Z,6.55
2022-12-28T09:57:37.141Z,7.03
2022-12-28T10:00:06.537Z,6.22
2022-12-28T10:02:37.787Z,6.75
2022-12-28T10:05:05.235Z,6.32
2022-12-28T10:07:33.604Z,6.00
2022-12-28T10:10:00.201Z,6.22
2022-12-28T10:12:29.624Z,6.25
2022-12-28T10:14:57.251Z,6.07
2022-12-28T10:17:28.267Z,6.72
2022-12-28T10:19:57.862Z,6.05
2022-12-28T10:22:27.227Z,6.05
2022-12-28T10:24:54.146Z,5.40
2022-12-28T10:27:31.463Z,5.97
2022-12-28T10:30:01.275Z,5.90
2022-12-28T10:32:48.571Z,5.57
2022-12-28T10:35:23.598Z,5.38
2022-12-28T10:37:50.115Z,4.95
2022-12-28T10:40:28.318Z,5.13
2022-12-28T10:42:56.663Z,5.03
2022-12-28T10:45:33.570Z,5.57
2022-12-28T10:48:02.571Z,4.82
2022-12-28T10:50:47.767Z,4.95
2022-12-28T10:53:31.300Z,4.90
2022-12-28T10:56:02.930Z,4.60
2022-12-28T10:58:31.296Z,4.63
2022-12-28T11:01:12.581Z,4.32
2022-12-28T11:03:42.611Z,3.65
2022-12-28T11:06:10.208Z,4.32
2022-12-28T11:08:37.821Z,4.18
2022-12-28T11:11:04.341Z,3.80
2022-12-28T11:13:30.842Z,3.53
2022-12-28T11:15:57.485Z,4.85
2022-12-28T11:18:24.075Z,4.15
2022-12-28T11:20:53.128Z,4.15
2022-12-28T11:23:31.400Z,4.70
2022-12-28T11:25:59.191Z,4.00
2022-12-28T11:28:25.665Z,4.25
2022-12-28T11:30:52.531Z,3.95
2022-12-28T11:33:27.880Z,3.97
2022-12-28T11:35:59.615Z,3.80
2022-12-28T11:38:44.172Z,3.97
2022-12-28T11:41:33.440Z,3.58
2022-12-28T11:44:02.824Z,3.50
2022-12-28T11:46:35.104Z,3.40
2022-12-28T11:49:35.900Z,3.08
2022-12-28T11:52:14.698Z,3.08
2022-12-28T11:54:53.747Z,3.78
2022-12-28T11:57:36.463Z,3.05
2022-12-28T12:00:22.672Z,3.70
2022-12-28T12:02:56.523Z,3.65
2022-12-28T12:05:38.403Z,3.13
2022-12-28T12:08:16.907Z,3.70
2022-12-28T12:10:45.257Z,3.47
2022-12-28T12:13:23.701Z,3.38
2022-12-28T12:15:52.987Z,3.40
2022-12-28T12:18:25.528Z,2.75
2022-12-28T12:21:21.436Z,2.97
2022-12-28T12:23:52.080Z,3.38
2022-12-28T12:26:35.483Z,3.13
2022-12-28T12:29:14.628Z,2.60
2022-12-28T12:31:48.557Z,2.92
2022-12-28T12:34:46.286Z,2.88
2022-12-28T12:37:31.152Z,2.90
2022-12-28T12:40:09.788Z,2.70
2022-12-28T12:42:55.904Z,2.88
2022-12-28T12:45:31.084Z,2.20
2022-12-28T12:48:16.776Z,3.08
2022-12-28T12:50:57.611Z,1.92
2022-12-28T12:53:56.213Z,2.40
2022-12-28T12:56:35.311Z,2.15
2022-12-28T12:59:21.539Z,2.85
2022-12-28T13:02:12.371Z,2.70
2022-12-28T13:04:45.867Z,2.63
2022-12-28T13:07:22.119Z,2.42
2022-12-28T13:09:50.478Z,2.45
2022-12-28T13:12:18.944Z,2.22
2022-12-28T13:14:47.651Z,2.78
2022-12-28T13:17:19.392Z,2.40
2022-12-28T13:19:46.268Z,2.25
2022-12-28T13:22:33.742Z,2.78
2022-12-28T13:25:00.193Z,3.28
2022-12-28T13:27:35.389Z,3.35
2022-12-28T13:30:03.063Z,2.83
2022-12-28T13:32:38.268Z,2.70
2022-12-28T13:35:19.884Z,3.70
2022-12-28T13:38:09.671Z,2.92
2022-12-28T13:40:38.584Z,2.70
2022-12-28T13:43:13.469Z,2.65
2022-12-28T13:45:39.959Z,2.83
2022-12-28T13:48:08.249Z,2.70
2022-12-28T13:50:38.445Z,3.05
2022-12-28T13:53:11.507Z,2.80
2022-12-28T13:55:43.348Z,2.78
2022-12-28T13:58:14.453Z,2.47
2022-12-28T14:00:45.751Z,2.60
2022-12-28T14:03:13.091Z,2.65
2022-12-28T14:05:45.150Z,2.58
2022-12-28T14:08:11.791Z,2.80
2022-12-28T14:10:38.225Z,3.33
2022-12-28T14:13:04.953Z,2.83
2022-12-28T14:15:39.004Z,2.65
2022-12-28T14:18:08.430Z,3.10
2022-12-28T14:20:49.757Z,2.42
2022-12-28T14:23:20.243Z,2.30
2022-12-28T14:25:46.773Z,2.70
2022-12-28T14:28:31.740Z,2.53
2022-12-28T14:30:58.358Z,2.60
2022-12-28T14:33:27.774Z,2.97
2022-12-28T14:35:59.349Z,2.70
2022-12-28T14:38:32.751Z,2.55
2022-12-28T14:41:01.842Z,2.58
2022-12-28T14:43:32.489Z,2.58
2022-12-28T14:46:30.615Z,2.95
2022-12-28T14:48:57.609Z,2.83
2022-12-28T14:51:30.062Z,2.72
2022-12-28T14:54:17.403Z,2.63
2022-12-28T14:56:53.295Z,3.03
2022-12-28T14:59:25.162Z,2.50
2022-12-28T15:01:52.563Z,2.25
2022-12-28T15:04:28.178Z,2.25
2022-12-28T15:06:54.898Z,4.50
2022-12-28T15:09:21.646Z,2.88
2022-12-28T15:11:48.180Z,2.30
2022-12-28T15:14:14.598Z,2.88
2022-12-28T15:16:41.074Z,2.65
2022-12-28T15:19:07.509Z,2.45
2022-12-28T15:21:33.977Z,2.20
2022-12-28T15:24:00.459Z,3.10
2022-12-28T15:26:27.913Z,2.60
2022-12-28T15:28:54.416Z,3.92
2022-12-28T15:31:21.685Z,4.13
2022-12-28T15:33:48.615Z,2.80
2022-12-28T15:36:21.005Z,2.65
2022-12-28T15:38:48.456Z,3.03
2022-12-28T15:41:35.331Z,2.83
2022-12-28T15:44:02.633Z,2.50
2022-12-28T15:46:29.134Z,2.53
2022-12-28T15:48:55.662Z,2.67
2022-12-28T15:51:22.101Z,2.72
2022-12-28T15:53:48.586Z,2.97
2022-12-28T15:56:27.765Z,2.85
2022-12-28T15:58:56.380Z,3.63
2022-12-28T16:01:24.015Z,3.10
2022-12-28T16:03:55.113Z,3.25
2022-12-28T16:06:23.037Z,2.85
2022-12-28T16:08:52.968Z,2.83
2022-12-28T16:11:20.833Z,3.55
2022-12-28T16:13:52.339Z,2.97
2022-12-28T16:16:19.310Z,4.80
2022-12-28T16:18:45.882Z,3.42
2022-12-28T16:21:12.365Z,5.82
2022-12-28T16:23:42.049Z,3.20
2022-12-28T16:26:10.288Z,3.45
2022-12-28T16:28:37.179Z,2.90
2022-12-28T16:31:04.111Z,3.10
2022-12-28T16:33:31.108Z,3.20
2022-12-28T16:35:59.973Z,2.92
2022-12-28T16:38:28.602Z,3.42
2022-12-28T16:40:56.834Z,4.00
2022-12-28T16:43:23.855Z,3.08
2022-12-28T16:45:50.652Z,3.03
2022-12-28T16:48:17.133Z,3.75
2022-12-28T16:50:43.898Z,2.97
2022-12-28T16:53:10.428Z,3.70
2022-12-28T16:55:42.229Z,3.45
2022-12-28T16:58:09.872Z,3.95
2022-12-28T17:00:36.289Z,3.70
2022-12-28T17:03:02.832Z,4.82
2022-12-28T17:05:35.334Z,4.10
2022-12-28T17:08:03.211Z,3.97
2022-12-28T17:10:30.244Z,3.28
2022-12-28T17:12:57.365Z,3.58
2022-12-28T17:15:23.920Z,3.45
2022-12-28T17:17:50.364Z,2.70
2022-12-28T17:20:16.984Z,2.97
2022-12-28T17:22:43.433Z,3.15
2022-12-28T17:25:09.865Z,2.95
2022-12-28T17:27:36.369Z,3.60
2022-12-28T17:30:03.212Z,2.75
2022-12-28T17:32:29.593Z,2.88
2022-12-28T17:34:55.986Z,3.08
2022-12-28T17:37:22.420Z,2.72
2022-12-28T17:39:48.846Z,2.72
2022-12-28T17:42:15.476Z,3.22
2022-12-28T17:44:41.902Z,2.78
2022-12-28T17:47:08.495Z,6.00
2022-12-28T17:49:34.932Z,8.00
2022-12-28T17:52:01.346Z,6.40
2022-12-28T17:54:27.793Z,4.93
2022-12-28T17:56:54.179Z,5.07
2022-12-28T17:59:20.586Z,10.65
2022-12-28T18:01:47.076Z,6.13
2022-12-28T18:04:13.613Z,3.58
2022-12-28T18:06:40.374Z,3.92
2022-12-28T18:09:07.354Z,3.80
2022-12-28T18:11:33.822Z,3.63
2022-12-28T18:14:00.329Z,3.30
2022-12-28T18:16:27.395Z,3.08
2022-12-28T18:18:54.335Z,3.58
2022-12-28T18:21:23.121Z,3.90
2022-12-28T18:23:51.794Z,3.90
2022-12-28T18:26:26.263Z,3.97
2022-12-28T18:28:54.010Z,4.15
2022-12-28T18:31:20.900Z,4.00
2022-12-28T18:33:48.139Z,3.08
2022-12-28T18:36:17.810Z,2.92
2022-12-28T18:38:46.120Z,2.90
2022-12-28T18:41:15.384Z,2.80
2022-12-28T18:43:42.466Z,2.90
2022-12-28T18:46:09.701Z,2.47
2022-12-28T18:48:38.337Z,2.80
2022-12-28T18:51:08.369Z,2.60
2022-12-28T18:53:35.415Z,2.30
2022-12-28T18:56:05.236Z,3.05
2022-12-28T18:58:34.584Z,2.33
2022-12-28T19:01:06.189Z,3.03
2022-12-28T19:03:33.751Z,2.90
2022-12-28T19:06:03.308Z,2.90
2022-12-28T19:08:33.738Z,3.50
2022-12-28T19:11:01.600Z,5.68
2022-12-28T19:13:31.937Z,7.00
2022-12-28T19:15:58.353Z,3.88
2022-12-28T19:18:24.823Z,3.20
2022-12-28T19:20:58.622Z,2.75
2022-12-28T19:23:25.973Z,2.53
2022-12-28T19:25:54.604Z,2.70
2022-12-28T19:28:21.040Z,3.22
2022-12-28T19:30:47.449Z,3.17
2022-12-28T19:33:13.863Z,2.50
2022-12-28T19:35:40.388Z,2.70
2022-12-28T19:38:06.790Z,2.88
2022-12-28T19:40:33.182Z,3.60
2022-12-28T19:42:59.569Z,3.28
2022-12-28T19:45:25.977Z,3.80
2022-12-28T19:47:52.375Z,3.17
2022-12-28T19:50:18.825Z,3.05
2022-12-28T19:52:45.211Z,3.00
2022-12-28T19:55:11.633Z,2.70
2022-12-28T19:57:38.921Z,2.63
2022-12-28T20:00:07.666Z,2.67
2022-12-28T20:02:34.311Z,2.70
2022-12-28T20:05:00.859Z,2.60
2022-12-28T20:07:27.366Z,2.60
2022-12-28T20:09:53.778Z,2.47
2022-12-28T20:12:22.437Z,2.67
2022-12-28T20:14:49.433Z,2.63
2022-12-28T20:17:15.838Z,2.10
2022-12-28T20:19:42.260Z,2.42
2022-12-28T20:22:08.680Z,2.35
2022-12-28T20:24:35.147Z,2.22
2022-12-28T20:27:02.056Z,2.10
2022-12-28T20:29:28.708Z,3.25
2022-12-28T20:31:55.199Z,2.83
2022-12-28T20:34:21.645Z,2.83
2022-12-28T20:36:49.380Z,3.33
2022-12-28T20:39:15.822Z,2.10
2022-12-28T20:42:01.479Z,2.40
2022-12-28T20:44:32.282Z,2.40
2022-12-28T20:47:00.416Z,2.33
2022-12-28T20:49:27.765Z,2.10
2022-12-28T20:51:54.555Z,2.28
2022-12-28T20:54:21.349Z,2.33
2022-12-28T20:56:53.897Z,2.03
2022-12-28T20:59:21.515Z,2.00
2022-12-28T21:01:48.101Z,2.20
2022-12-28T21:04:14.906Z,2.17
2022-12-28T21:06:41.453Z,2.60
2022-12-28T21:09:07.953Z,1.95
2022-12-28T21:11:34.379Z,2.30
2022-12-28T21:14:00.798Z,2.10
2022-12-28T21:16:27.459Z,1.83
2022-12-28T21:18:53.993Z,1.90
2022-12-28T21:21:21.957Z,2.20
2022-12-28T21:23:48.694Z,1.90
2022-12-28T21:26:17.092Z,1.80
2022-12-28T21:28:44.137Z,2.08
2022-12-28T21:31:11.403Z,1.70
2022-12-28T21:33:38.781Z,1.83
2022-12-28T21:36:20.043Z,2.20
2022-12-28T21:38:47.826Z,2.10
2022-12-28T21:41:41.772Z,1.73
2022-12-28T21:44:12.839Z,1.88
2022-12-28T21:46:39.744Z,1.83
2022-12-28T21:49:06.946Z,1.80
2022-12-28T21:51:38.436Z,1.80
2022-12-28T21:54:11.876Z,2.15
2022-12-28T21:56:38.823Z,1.67
2022-12-28T21:59:06.113Z,1.95
2022-12-28T22:01:50.961Z,1.70
2022-12-28T22:04:38.556Z,1.60
2022-12-28T22:07:06.591Z,1.65
2022-12-28T22:09:52.207Z,1.80
2022-12-28T22:12:37.205Z,1.60
2022-12-28T22:15:31.568Z,1.90
2022-12-28T22:18:00.590Z,1.67
2022-12-28T22:20:28.354Z,1.85
2022-12-28T22:22:57.125Z,1.92
2022-12-28T22:25:24.561Z,1.75
2022-12-28T22:27:51.040Z,1.98
2022-12-28T22:30:17.932Z,1.95
2022-12-28T22:32:44.419Z,1.90
2022-12-28T22:35:11.149Z,2.40
2022-12-28T22:37:37.612Z,2.08
2022-12-28T22:40:05.463Z,1.92
2022-12-28T22:42:32.263Z,2.00
2022-12-28T22:44:58.873Z,1.90
2022-12-28T22:47:28.012Z,2.50
2022-12-28T22:49:54.794Z,1.90
2022-12-28T22:52:21.249Z,1.92
2022-12-28T22:54:47.802Z,2.25
2022-12-28T22:57:14.231Z,2.25
2022-12-28T22:59:40.675Z,2.00
2022-12-28T23:02:07.221Z,2.58
2022-12-28T23:04:33.870Z,2.20
2022-12-28T23:07:03.884Z,2.05
2022-12-28T23:09:31.421Z,3.15
2022-12-28T23:11:58.176Z,1.85
2022-12-28T23:14:43.610Z,2.33
2022-12-28T23:17:12.721Z,2.10
2022-12-28T23:19:58.196Z,1.73
2022-12-28T23:22:46.739Z,2.33
2022-12-28T23:25:37.416Z,1.95
2022-12-28T23:28:10.397Z,2.17
2022-12-28T23:30:41.943Z,1.80
2022-12-28T23:33:08.914Z,2.10
2022-12-28T23:35:35.359Z,1.90
2022-12-28T23:38:01.869Z,1.80
2022-12-28T23:40:28.316Z,1.85
2022-12-28T23:42:54.885Z,1.85
2022-12-28T23:45:21.484Z,1.92
2022-12-28T23:47:48.099Z,1.85
2022-12-28T23:50:16.486Z,1.60
2022-12-28T23:52:43.307Z,1.77
2022-12-28T23:55:10.453Z,1.60
2022-12-28T23:57:37.796Z,1.75
